createdAt,value
2018-09-08T00:01:06.491Z,43.18
2018-09-08T00:06:09.965Z,42.86
2018-09-08T00:11:13.413Z,42.73
2018-09-08T00:16:22.325Z,43.25
2018-09-08T00:21:31.253Z,42.89
2018-09-08T00:26:34.108Z,42.80
2018-09-08T00:31:37.818Z,42.67
2018-09-08T00:36:41.351Z,42.74
2018-09-08T00:41:44.803Z,42.85
2018-09-08T00:46:48.310Z,42.73
2018-09-08T00:51:51.778Z,42.71
2018-09-08T00:56:55.471Z,42.38
2018-09-08T01:01:59.114Z,42.54
2018-09-08T01:07:02.760Z,42.21
2018-09-08T01:12:06.509Z,41.81
2018-09-08T01:17:10.013Z,41.94
2018-09-08T01:22:13.556Z,41.83
2018-09-08T01:27:17.033Z,41.92
2018-09-08T01:32:20.613Z,41.32
2018-09-08T01:37:24.040Z,41.76
2018-09-08T01:42:27.481Z,41.76
2018-09-08T01:47:31.118Z,41.21
2018-09-08T01:52:34.642Z,41.71
2018-09-08T01:57:38.091Z,41.70
2018-09-08T02:02:41.603Z,41.19
2018-09-08T02:07:45.026Z,41.49
2018-09-08T02:12:48.501Z,40.77
2018-09-08T02:17:51.943Z,41.10
2018-09-08T02:22:55.519Z,41.21
2018-09-08T02:27:59.309Z,40.74
2018-09-08T02:33:02.762Z,40.70
2018-09-08T02:38:06.472Z,40.80
2018-09-08T02:43:09.961Z,41.02
2018-09-08T02:48:13.525Z,40.78
2018-09-08T02:53:16.018Z,40.49
2018-09-08T02:58:18.392Z,40.39
2018-09-08T03:03:20.708Z,40.61
2018-09-08T03:08:23.022Z,40.63
2018-09-08T03:13:25.566Z,40.37
2018-09-08T03:18:28.028Z,40.52
2018-09-08T03:23:30.435Z,40.32
2018-09-08T03:28:32.773Z,40.16
2018-09-08T03:33:35.297Z,40.06
2018-09-08T03:38:37.682Z,40.50
2018-09-08T03:43:40.128Z,40.31
2018-09-08T03:48:42.685Z,40.54
2018-09-08T03:53:45.020Z,40.67
2018-09-08T03:58:47.432Z,40.89
2018-09-08T04:03:50.945Z,40.74
2018-09-08T04:08:54.905Z,40.64
2018-09-08T04:13:58.441Z,41.16
2018-09-08T04:19:01.937Z,41.01
2018-09-08T04:24:05.567Z,41.44
2018-09-08T04:29:09.109Z,41.26
2018-09-08T04:34:12.616Z,41.34
2018-09-08T04:39:16.305Z,41.42
2018-09-08T04:44:19.789Z,41.45
2018-09-08T04:49:23.379Z,41.47
2018-09-08T04:54:26.829Z,41.12
2018-09-08T04:59:30.320Z,41.37
2018-09-08T05:04:33.776Z,41.83
2018-09-08T05:09:37.277Z,41.79
2018-09-08T05:14:40.706Z,41.63
2018-09-08T05:19:44.328Z,41.89
2018-09-08T05:24:47.798Z,42.17
2018-09-08T05:29:51.443Z,42.07
2018-09-08T05:34:55.076Z,41.72
2018-09-08T05:39:58.488Z,41.99
2018-09-08T05:45:02.103Z,42.01
2018-09-08T05:50:05.616Z,41.82
2018-09-08T05:55:09.098Z,42.20
2018-09-08T06:00:12.543Z,42.02
2018-09-08T06:05:16.155Z,41.62
2018-09-08T06:10:19.971Z,41.82
2018-09-08T06:15:23.393Z,42.19
2018-09-08T06:20:26.854Z,41.77
2018-09-08T06:25:30.671Z,42.21
2018-09-08T06:30:34.129Z,42.37
2018-09-08T06:35:37.710Z,42.21
2018-09-08T06:40:42.241Z,42.40
2018-09-08T06:45:46.181Z,41.52
2018-09-08T06:50:49.945Z,41.83
2018-09-08T06:55:53.987Z,41.19
2018-09-08T07:00:58.513Z,40.88
2018-09-08T07:06:02.830Z,43.07
2018-09-08T07:11:06.669Z,42.32
2018-09-08T07:16:10.267Z,42.24
2018-09-08T07:21:13.908Z,42.46
2018-09-08T07:26:17.449Z,41.70
2018-09-08T07:31:21.249Z,41.79
2018-09-08T07:36:24.955Z,41.73
2018-09-08T07:41:28.601Z,41.41
2018-09-08T07:46:32.226Z,40.67
2018-09-08T07:51:35.808Z,40.18
2018-09-08T07:56:39.754Z,39.91
2018-09-08T08:01:43.454Z,39.50
2018-09-08T08:06:47.691Z,38.55
2018-09-08T08:11:51.400Z,37.67
2018-09-08T08:16:55.432Z,36.85
2018-09-08T08:21:59.025Z,36.51
2018-09-08T08:27:02.492Z,36.38
2018-09-08T08:32:06.012Z,35.36
2018-09-08T08:37:09.814Z,35.18
2018-09-08T08:42:13.497Z,34.72
2018-09-08T08:47:17.008Z,34.49
2018-09-08T08:52:31.658Z,34.57
2018-09-08T08:57:35.101Z,34.41
2018-09-08T09:02:38.662Z,34.41
2018-09-08T09:07:42.312Z,33.90
2018-09-08T09:12:45.917Z,33.29
2018-09-08T09:17:49.427Z,33.22
2018-09-08T09:23:04.280Z,32.82
2018-09-08T09:28:07.782Z,33.31
2018-09-08T09:33:11.515Z,32.51
2018-09-08T09:38:15.434Z,32.22
2018-09-08T09:43:18.961Z,31.91
2018-09-08T09:48:22.494Z,32.04
2018-09-08T09:53:25.982Z,31.91
2018-09-08T09:58:29.465Z,31.13
2018-09-08T10:03:32.953Z,30.22
2018-09-08T10:08:36.446Z,29.85
2018-09-08T10:13:40.052Z,29.71
2018-09-08T10:18:43.744Z,28.96
2018-09-08T10:24:04.342Z,29.21
2018-09-08T10:28:50.758Z,30.34
2018-09-08T10:33:54.609Z,30.11
2018-09-08T10:38:58.806Z,29.87
2018-09-08T10:44:02.300Z,28.84
2018-09-08T10:49:05.733Z,29.73
2018-09-08T10:54:09.204Z,29.32
2018-09-08T10:59:12.665Z,29.54
2018-09-08T11:04:16.110Z,29.83
2018-09-08T11:09:19.561Z,29.61
2018-09-08T11:14:23.037Z,28.96
2018-09-08T11:19:26.753Z,29.11
2018-09-08T11:24:30.683Z,28.60
2018-09-08T11:29:34.197Z,28.51
2018-09-08T11:34:37.862Z,28.50
2018-09-08T11:39:41.342Z,28.59
2018-09-08T11:44:44.868Z,28.81
2018-09-08T11:49:48.455Z,28.59
2018-09-08T11:54:51.950Z,28.30
2018-09-08T11:59:55.386Z,28.74
2018-09-08T12:04:58.897Z,28.58
2018-09-08T12:10:02.398Z,28.23
2018-09-08T12:15:07.040Z,28.10
2018-09-08T12:20:10.575Z,27.71
2018-09-08T12:25:14.076Z,26.99
2018-09-08T12:30:17.579Z,26.86
2018-09-08T12:35:21.097Z,27.63
2018-09-08T12:40:25.062Z,28.35
2018-09-08T12:45:28.557Z,27.99
2018-09-08T12:50:32.305Z,27.54
2018-09-08T12:55:35.930Z,28.05
2018-09-08T13:00:39.382Z,27.57
2018-09-08T13:05:42.934Z,27.67
2018-09-08T13:10:46.422Z,27.37
2018-09-08T13:15:50.345Z,27.29
2018-09-08T13:20:53.793Z,27.29
2018-09-08T13:25:57.397Z,27.47
2018-09-08T13:31:00.876Z,27.31
2018-09-08T13:36:04.381Z,27.00
2018-09-08T13:41:07.995Z,26.07
2018-09-08T13:46:11.590Z,26.04
2018-09-08T13:51:15.322Z,25.93
2018-09-08T13:56:18.807Z,26.76
2018-09-08T14:01:22.286Z,27.28
2018-09-08T14:06:26.107Z,27.08
2018-09-08T14:11:29.854Z,27.60
2018-09-08T14:16:33.445Z,27.73
2018-09-08T14:21:36.903Z,26.90
2018-09-08T14:26:40.394Z,27.43
2018-09-08T14:31:43.912Z,26.97
2018-09-08T14:36:47.404Z,28.13
2018-09-08T14:41:50.905Z,27.82
2018-09-08T14:46:54.450Z,28.24
2018-09-08T14:51:57.939Z,27.26
2018-09-08T14:57:01.456Z,27.13
2018-09-08T15:02:05.002Z,26.99
2018-09-08T15:07:08.658Z,27.30
2018-09-08T15:12:12.330Z,27.79
2018-09-08T15:17:15.773Z,27.34
2018-09-08T15:22:19.242Z,27.22
2018-09-08T15:27:22.711Z,27.29
2018-09-08T15:32:26.170Z,27.42
2018-09-08T15:37:29.697Z,27.92
2018-09-08T15:42:33.225Z,28.15
2018-09-08T15:47:36.709Z,28.27
2018-09-08T15:52:40.515Z,28.44
2018-09-08T15:57:43.997Z,28.14
2018-09-08T16:02:47.483Z,28.49
2018-09-08T16:07:50.965Z,28.55
2018-09-08T16:12:54.626Z,28.11
2018-09-08T16:17:58.095Z,28.96
2018-09-08T16:23:01.652Z,28.57
2018-09-08T16:28:05.129Z,28.29
2018-09-08T16:33:08.767Z,28.16
2018-09-08T16:38:12.306Z,28.93
2018-09-08T16:43:15.777Z,29.46
2018-09-08T16:48:19.322Z,29.00
2018-09-08T16:53:22.746Z,29.38
2018-09-08T16:58:26.375Z,29.26
2018-09-08T17:03:30.450Z,29.66
2018-09-08T17:08:33.878Z,29.36
2018-09-08T17:13:37.362Z,30.01
2018-09-08T17:18:40.825Z,30.44
2018-09-08T17:23:44.659Z,30.49
2018-09-08T17:28:48.313Z,30.12
2018-09-08T17:33:51.906Z,30.59
2018-09-08T17:38:55.691Z,30.95
2018-09-08T17:43:59.342Z,30.70
2018-09-08T17:49:03.077Z,30.71
2018-09-08T17:54:06.902Z,30.70
2018-09-08T17:59:10.336Z,31.38
2018-09-08T18:04:14.537Z,31.22
2018-09-08T18:09:18.014Z,31.83
2018-09-08T18:14:22.060Z,31.79
2018-09-08T18:19:25.903Z,31.74
2018-09-08T18:24:29.799Z,32.21
2018-09-08T18:29:33.268Z,32.14
2018-09-08T18:34:36.972Z,32.35
2018-09-08T18:39:40.490Z,32.73
2018-09-08T18:44:44.065Z,33.46
2018-09-08T18:49:48.181Z,33.93
2018-09-08T18:54:52.845Z,33.96
2018-09-08T18:59:56.326Z,33.73
2018-09-08T19:04:59.818Z,33.95
2018-09-08T19:10:06.562Z,33.94
2018-09-08T19:15:17.649Z,33.59
2018-09-08T19:20:26.389Z,33.72
2018-09-08T19:25:30.027Z,33.31
2018-09-08T19:30:34.644Z,33.67
2018-09-08T19:35:39.601Z,33.21
2018-09-08T19:40:46.090Z,33.96
2018-09-08T19:45:49.859Z,33.83
2018-09-08T19:50:53.710Z,34.19
2018-09-08T19:55:57.387Z,34.39
2018-09-08T20:01:01.127Z,34.43
2018-09-08T20:06:04.682Z,34.74
2018-09-08T20:11:08.194Z,34.65
2018-09-08T20:16:11.755Z,34.47
2018-09-08T20:21:15.386Z,34.89
2018-09-08T20:26:19.261Z,34.42
2018-09-08T20:31:22.729Z,34.81
2018-09-08T20:36:26.277Z,34.87
2018-09-08T20:41:29.757Z,34.63
2018-09-08T20:46:33.278Z,34.92
2018-09-08T20:51:36.828Z,34.52
2018-09-08T20:56:40.364Z,34.83
2018-09-08T21:01:43.847Z,35.15
2018-09-08T21:06:47.305Z,34.79
2018-09-08T21:11:50.883Z,33.95
2018-09-08T21:16:54.491Z,33.98
2018-09-08T21:21:57.984Z,33.74
2018-09-08T21:27:01.569Z,33.74
2018-09-08T21:32:05.222Z,33.33
2018-09-08T21:37:08.688Z,33.38
2018-09-08T21:42:12.378Z,33.55
2018-09-08T21:47:15.873Z,33.13
2018-09-08T21:52:19.328Z,33.24
2018-09-08T21:57:22.801Z,33.59
2018-09-08T22:02:26.261Z,33.33
2018-09-08T22:07:29.737Z,33.56
2018-09-08T22:12:33.244Z,33.51
2018-09-08T22:17:36.969Z,33.90
2018-09-08T22:22:40.521Z,33.87
2018-09-08T22:27:43.961Z,33.49
2018-09-08T22:32:47.831Z,33.58
2018-09-08T22:37:51.307Z,33.24
2018-09-08T22:42:54.850Z,33.72
2018-09-08T22:47:58.389Z,34.24
2018-09-08T22:53:01.919Z,34.25
2018-09-08T22:58:05.455Z,34.07
2018-09-08T23:03:09.130Z,33.92
2018-09-08T23:08:12.601Z,34.04
2018-09-08T23:13:16.188Z,34.37
2018-09-08T23:18:19.684Z,34.54
2018-09-08T23:23:23.112Z,34.33
2018-09-08T23:28:26.816Z,34.57
2018-09-08T23:33:30.255Z,34.80
2018-09-08T23:38:33.793Z,34.86
2018-09-08T23:43:37.433Z,34.67
2018-09-08T23:48:40.970Z,35.01
2018-09-08T23:53:44.401Z,34.62
2018-09-08T23:58:47.938Z,34.30
